sensor_id;sensor_type;location;lat;lon;timestamp;P1;durP1;ratioP1;P2;durP2;ratioP2
66095;SDS011;53861;53.422;14.530;2024-03-23T00:54:37;21.27;;;4.95;;
66095;SDS011;53861;53.422;14.530;2024-03-23T00:57:03;15.75;;;3.88;;
66095;SDS011;53861;53.422;14.530;2024-03-23T00:59:31;17.67;;;4.32;;
66095;SDS011;53861;53.422;14.530;2024-03-23T01:01:57;14.07;;;4.63;;
66095;SDS011;53861;53.422;14.530;2024-03-23T01:04:24;18.33;;;4.40;;
66095;SDS011;53861;53.422;14.530;2024-03-23T01:06:50;15.32;;;4.22;;
66095;SDS011;53861;53.422;14.530;2024-03-23T01:09:18;12.00;;;4.55;;
66095;SDS011;53861;53.422;14.530;2024-03-23T01:11:45;15.80;;;4.43;;
66095;SDS011;53861;53.422;14.530;2024-03-23T01:14:12;18.95;;;4.57;;
66095;SDS011;53861;53.422;14.530;2024-03-23T01:16:39;21.80;;;4.57;;
66095;SDS011;53861;53.422;14.530;2024-03-23T01:19:06;18.75;;;4.13;;
66095;SDS011;53861;53.422;14.530;2024-03-23T01:21:32;20.52;;;4.80;;
66095;SDS011;53861;53.422;14.530;2024-03-23T01:23:59;15.45;;;4.20;;
66095;SDS011;53861;53.422;14.530;2024-03-23T01:26:25;13.85;;;4.13;;
66095;SDS011;53861;53.422;14.530;2024-03-23T01:28:54;13.13;;;4.75;;
66095;SDS011;53861;53.422;14.530;2024-03-23T01:31:20;17.42;;;4.82;;
66095;SDS011;53861;53.422;14.530;2024-03-23T01:33:48;17.90;;;4.55;;
66095;SDS011;53861;53.422;14.530;2024-03-23T01:36:14;18.75;;;4.57;;
66095;SDS011;53861;53.422;14.530;2024-03-23T01:38:41;18.15;;;4.82;;
66095;SDS011;53861;53.422;14.530;2024-03-23T01:41:07;10.25;;;3.97;;
66095;SDS011;53861;53.422;14.530;2024-03-23T01:43:35;14.73;;;4.10;;
66095;SDS011;53861;53.422;14.530;2024-03-23T01:46:02;17.27;;;3.38;;
66095;SDS011;53861;53.422;14.530;2024-03-23T01:48:30;14.30;;;3.55;;
66095;SDS011;53861;53.422;14.530;2024-03-23T01:50:56;17.85;;;3.80;;
66095;SDS011;53861;53.422;14.530;2024-03-23T01:53:24;18.33;;;3.90;;
66095;SDS011;53861;53.422;14.530;2024-03-23T01:55:51;12.40;;;3.22;;
66095;SDS011;53861;53.422;14.530;2024-03-23T01:58:18;16.33;;;3.60;;
66095;SDS011;53861;53.422;14.530;2024-03-23T02:00:44;16.88;;;3.70;;
66095;SDS011;53861;53.422;14.530;2024-03-23T02:05:54;17.02;;;3.17;;
66095;SDS011;53861;53.422;14.530;2024-03-23T02:08:23;17.58;;;3.45;;
66095;SDS011;53861;53.422;14.530;2024-03-23T02:10:50;18.00;;;3.40;;
66095;SDS011;53861;53.422;14.530;2024-03-23T02:13:18;13.07;;;3.45;;
66095;SDS011;53861;53.422;14.530;2024-03-23T02:15:44;15.43;;;3.40;;
66095;SDS011;53861;53.422;14.530;2024-03-23T02:18:12;16.17;;;3.75;;
66095;SDS011;53861;53.422;14.530;2024-03-23T02:20:39;18.05;;;3.60;;
66095;SDS011;53861;53.422;14.530;2024-03-23T02:23:14;20.38;;;3.75;;
66095;SDS011;53861;53.422;14.530;2024-03-23T02:28:07;19.92;;;4.28;;
66095;SDS011;53861;53.422;14.530;2024-03-23T02:30:34;11.45;;;3.05;;
66095;SDS011;53861;53.422;14.530;2024-03-23T02:33:01;14.48;;;3.58;;
66095;SDS011;53861;53.422;14.530;2024-03-23T02:35:27;18.00;;;3.97;;
66095;SDS011;53861;53.422;14.530;2024-03-23T02:37:54;22.90;;;4.05;;
66095;SDS011;53861;53.422;14.530;2024-03-23T02:40:23;14.30;;;4.05;;
66095;SDS011;53861;53.422;14.530;2024-03-23T02:42:51;24.80;;;3.92;;
66095;SDS011;53861;53.422;14.530;2024-03-23T02:45:17;18.48;;;4.50;;
66095;SDS011;53861;53.422;14.530;2024-03-23T02:47:45;16.40;;;4.20;;
66095;SDS011;53861;53.422;14.530;2024-03-23T02:50:11;24.73;;;3.97;;
66095;SDS011;53861;53.422;14.530;2024-03-23T02:52:40;24.13;;;4.57;;
66095;SDS011;53861;53.422;14.530;2024-03-23T02:55:06;18.17;;;4.63;;
66095;SDS011;53861;53.422;14.530;2024-03-23T02:57:35;16.70;;;3.92;;
66095;SDS011;53861;53.422;14.530;2024-03-23T03:00:02;20.20;;;4.57;;
66095;SDS011;53861;53.422;14.530;2024-03-23T03:02:30;21.42;;;3.85;;
66095;SDS011;53861;53.422;14.530;2024-03-23T03:04:57;18.55;;;3.80;;
66095;SDS011;53861;53.422;14.530;2024-03-23T03:07:24;17.25;;;3.60;;
66095;SDS011;53861;53.422;14.530;2024-03-23T03:09:50;19.77;;;4.03;;
66095;SDS011;53861;53.422;14.530;2024-03-23T03:12:17;20.35;;;4.10;;
66095;SDS011;53861;53.422;14.530;2024-03-23T03:14:45;15.93;;;3.90;;
66095;SDS011;53861;53.422;14.530;2024-03-23T03:17:13;18.33;;;4.10;;
66095;SDS011;53861;53.422;14.530;2024-03-23T03:19:40;15.30;;;3.17;;
66095;SDS011;53861;53.422;14.530;2024-03-23T03:22:07;17.05;;;3.75;;
66095;SDS011;53861;53.422;14.530;2024-03-23T03:24:34;22.95;;;4.18;;
66095;SDS011;53861;53.422;14.530;2024-03-23T03:27:01;20.67;;;3.90;;
66095;SDS011;53861;53.422;14.530;2024-03-23T03:29:29;19.85;;;5.13;;
66095;SDS011;53861;53.422;14.530;2024-03-23T03:32:03;23.88;;;6.25;;
66095;SDS011;53861;53.422;14.530;2024-03-23T03:34:29;36.08;;;9.70;;
66095;SDS011;53861;53.422;14.530;2024-03-23T03:36:57;24.33;;;7.38;;
66095;SDS011;53861;53.422;14.530;2024-03-23T03:39:23;18.05;;;4.70;;
66095;SDS011;53861;53.422;14.530;2024-03-23T03:41:50;18.95;;;4.53;;
66095;SDS011;53861;53.422;14.530;2024-03-23T03:44:16;23.90;;;4.43;;
66095;SDS011;53861;53.422;14.530;2024-03-23T03:46:44;15.30;;;4.13;;
66095;SDS011;53861;53.422;14.530;2024-03-23T03:49:11;27.13;;;5.00;;
66095;SDS011;53861;53.422;14.530;2024-03-23T03:51:39;20.38;;;4.40;;
66095;SDS011;53861;53.422;14.530;2024-03-23T03:54:05;14.55;;;4.30;;
66095;SDS011;53861;53.422;14.530;2024-03-23T03:56:32;17.40;;;5.22;;
66095;SDS011;53861;53.422;14.530;2024-03-23T03:58:58;19.15;;;5.10;;
66095;SDS011;53861;53.422;14.530;2024-03-23T04:01:25;20.33;;;5.60;;
66095;SDS011;53861;53.422;14.530;2024-03-23T04:03:52;28.85;;;6.28;;
66095;SDS011;53861;53.422;14.530;2024-03-23T04:06:20;25.30;;;6.80;;
66095;SDS011;53861;53.422;14.530;2024-03-23T04:08:47;22.83;;;7.80;;
66095;SDS011;53861;53.422;14.530;2024-03-23T04:11:14;26.30;;;7.68;;
66095;SDS011;53861;53.422;14.530;2024-03-23T04:13:40;20.63;;;5.63;;
66095;SDS011;53861;53.422;14.530;2024-03-23T04:16:08;30.10;;;8.60;;
66095;SDS011;53861;53.422;14.530;2024-03-23T04:18:34;17.45;;;5.25;;
66095;SDS011;53861;53.422;14.530;2024-03-23T04:21:02;16.80;;;3.50;;
66095;SDS011;53861;53.422;14.530;2024-03-23T04:23:31;16.95;;;3.85;;
66095;SDS011;53861;53.422;14.530;2024-03-23T04:26:02;17.52;;;3.75;;
66095;SDS011;53861;53.422;14.530;2024-03-23T04:28:30;16.30;;;3.30;;
66095;SDS011;53861;53.422;14.530;2024-03-23T04:30:57;16.70;;;3.05;;
66095;SDS011;53861;53.422;14.530;2024-03-23T04:33:24;14.65;;;3.45;;
66095;SDS011;53861;53.422;14.530;2024-03-23T04:35:50;16.15;;;3.15;;
66095;SDS011;53861;53.422;14.530;2024-03-23T04:38:17;17.75;;;3.72;;
66095;SDS011;53861;53.422;14.530;2024-03-23T04:40:47;17.30;;;3.53;;
66095;SDS011;53861;53.422;14.530;2024-03-23T04:43:21;16.42;;;3.50;;
66095;SDS011;53861;53.422;14.530;2024-03-23T04:45:48;16.38;;;3.75;;
66095;SDS011;53861;53.422;14.530;2024-03-23T04:48:14;14.98;;;4.07;;
66095;SDS011;53861;53.422;14.530;2024-03-23T04:50:42;16.80;;;3.92;;
66095;SDS011;53861;53.422;14.530;2024-03-23T04:53:09;17.67;;;3.83;;
66095;SDS011;53861;53.422;14.530;2024-03-23T04:55:36;18.13;;;5.03;;
66095;SDS011;53861;53.422;14.530;2024-03-23T04:58:05;17.88;;;4.78;;
66095;SDS011;53861;53.422;14.530;2024-03-23T05:00:31;14.05;;;4.65;;
66095;SDS011;53861;53.422;14.530;2024-03-23T05:02:58;24.10;;;5.95;;
66095;SDS011;53861;53.422;14.530;2024-03-23T05:05:25;16.05;;;4.63;;
66095;SDS011;53861;53.422;14.530;2024-03-23T05:07:52;18.83;;;6.38;;
66095;SDS011;53861;53.422;14.530;2024-03-23T05:10:19;22.17;;;5.32;;
66095;SDS011;53861;53.422;14.530;2024-03-23T05:12:45;21.80;;;7.13;;
66095;SDS011;53861;53.422;14.530;2024-03-23T05:15:14;24.48;;;8.05;;
66095;SDS011;53861;53.422;14.530;2024-03-23T05:17:40;16.02;;;4.78;;
66095;SDS011;53861;53.422;14.530;2024-03-23T05:20:07;17.55;;;4.28;;
66095;SDS011;53861;53.422;14.530;2024-03-23T05:22:35;17.08;;;4.03;;
66095;SDS011;53861;53.422;14.530;2024-03-23T05:25:02;27.67;;;7.72;;
66095;SDS011;53861;53.422;14.530;2024-03-23T05:27:31;22.52;;;6.68;;
66095;SDS011;53861;53.422;14.530;2024-03-23T05:29:58;24.40;;;5.68;;
66095;SDS011;53861;53.422;14.530;2024-03-23T05:32:26;19.63;;;5.65;;
66095;SDS011;53861;53.422;14.530;2024-03-23T05:34:53;13.60;;;3.92;;
66095;SDS011;53861;53.422;14.530;2024-03-23T05:37:22;14.50;;;3.58;;
66095;SDS011;53861;53.422;14.530;2024-03-23T05:39:49;18.75;;;4.18;;
66095;SDS011;53861;53.422;14.530;2024-03-23T05:42:15;20.05;;;4.70;;
66095;SDS011;53861;53.422;14.530;2024-03-23T05:44:43;30.15;;;7.00;;
66095;SDS011;53861;53.422;14.530;2024-03-23T05:47:10;18.48;;;5.20;;
66095;SDS011;53861;53.422;14.530;2024-03-23T05:49:40;19.20;;;4.32;;
66095;SDS011;53861;53.422;14.530;2024-03-23T05:52:07;13.07;;;4.13;;
66095;SDS011;53861;53.422;14.530;2024-03-23T05:54:35;14.85;;;3.38;;
66095;SDS011;53861;53.422;14.530;2024-03-23T05:57:01;15.82;;;4.15;;
66095;SDS011;53861;53.422;14.530;2024-03-23T05:59:29;17.30;;;3.97;;
66095;SDS011;53861;53.422;14.530;2024-03-23T06:01:55;16.75;;;3.60;;
66095;SDS011;53861;53.422;14.530;2024-03-23T06:04:22;17.23;;;4.20;;
66095;SDS011;53861;53.422;14.530;2024-03-23T06:06:51;16.27;;;3.53;;
66095;SDS011;53861;53.422;14.530;2024-03-23T06:09:18;14.52;;;3.42;;
66095;SDS011;53861;53.422;14.530;2024-03-23T06:11:45;17.40;;;3.65;;
66095;SDS011;53861;53.422;14.530;2024-03-23T06:14:12;16.65;;;3.53;;
66095;SDS011;53861;53.422;14.530;2024-03-23T06:16:39;15.60;;;3.45;;
66095;SDS011;53861;53.422;14.530;2024-03-23T06:19:06;12.10;;;3.25;;
66095;SDS011;53861;53.422;14.530;2024-03-23T06:21:32;17.13;;;3.30;;
66095;SDS011;53861;53.422;14.530;2024-03-23T06:24:01;11.43;;;3.03;;
66095;SDS011;53861;53.422;14.530;2024-03-23T06:26:27;13.02;;;2.90;;
66095;SDS011;53861;53.422;14.530;2024-03-23T06:28:54;12.73;;;3.33;;
66095;SDS011;53861;53.422;14.530;2024-03-23T06:31:21;11.93;;;3.00;;
66095;SDS011;53861;53.422;14.530;2024-03-23T06:33:49;11.02;;;3.20;;
66095;SDS011;53861;53.422;14.530;2024-03-23T06:36:18;10.63;;;2.83;;
66095;SDS011;53861;53.422;14.530;2024-03-23T06:38:45;10.85;;;3.05;;
66095;SDS011;53861;53.422;14.530;2024-03-23T06:41:13;12.20;;;2.47;;
66095;SDS011;53861;53.422;14.530;2024-03-23T06:43:40;9.82;;;2.88;;
66095;SDS011;53861;53.422;14.530;2024-03-23T06:46:06;9.90;;;2.78;;
66095;SDS011;53861;53.422;14.530;2024-03-23T06:48:33;10.68;;;3.10;;
66095;SDS011;53861;53.422;14.530;2024-03-23T06:51:00;12.90;;;2.80;;
66095;SDS011;53861;53.422;14.530;2024-03-23T06:53:27;14.65;;;3.42;;
66095;SDS011;53861;53.422;14.530;2024-03-23T06:55:53;14.55;;;3.25;;
66095;SDS011;53861;53.422;14.530;2024-03-23T06:58:23;10.48;;;3.28;;
66095;SDS011;53861;53.422;14.530;2024-03-23T07:00:50;12.75;;;3.20;;
66095;SDS011;53861;53.422;14.530;2024-03-23T07:03:17;14.82;;;4.50;;
66095;SDS011;53861;53.422;14.530;2024-03-23T07:05:44;12.02;;;3.20;;
66095;SDS011;53861;53.422;14.530;2024-03-23T07:08:11;16.33;;;3.67;;
66095;SDS011;53861;53.422;14.530;2024-03-23T07:10:39;16.35;;;4.10;;
66095;SDS011;53861;53.422;14.530;2024-03-23T07:13:06;11.90;;;3.42;;
66095;SDS011;53861;53.422;14.530;2024-03-23T07:15:35;15.32;;;3.72;;
66095;SDS011;53861;53.422;14.530;2024-03-23T07:18:06;12.18;;;3.17;;
66095;SDS011;53861;53.422;14.530;2024-03-23T07:20:32;8.52;;;2.90;;
66095;SDS011;53861;53.422;14.530;2024-03-23T07:22:59;10.10;;;2.88;;
66095;SDS011;53861;53.422;14.530;2024-03-23T07:25:25;12.27;;;2.60;;
66095;SDS011;53861;53.422;14.530;2024-03-23T07:27:54;10.70;;;2.85;;
66095;SDS011;53861;53.422;14.530;2024-03-23T07:30:21;8.38;;;2.83;;
66095;SDS011;53861;53.422;14.530;2024-03-23T07:32:51;10.13;;;2.75;;
66095;SDS011;53861;53.422;14.530;2024-03-23T07:35:18;6.57;;;2.33;;
66095;SDS011;53861;53.422;14.530;2024-03-23T07:37:45;11.43;;;2.50;;
66095;SDS011;53861;53.422;14.530;2024-03-23T07:40:14;8.77;;;2.45;;
66095;SDS011;53861;53.422;14.530;2024-03-23T07:42:41;8.82;;;2.70;;
66095;SDS011;53861;53.422;14.530;2024-03-23T07:45:08;10.40;;;2.97;;
66095;SDS011;53861;53.422;14.530;2024-03-23T07:47:36;13.45;;;3.17;;
66095;SDS011;53861;53.422;14.530;2024-03-23T07:50:04;7.75;;;2.55;;
66095;SDS011;53861;53.422;14.530;2024-03-23T07:52:32;10.18;;;2.63;;
66095;SDS011;53861;53.422;14.530;2024-03-23T07:54:59;14.02;;;2.72;;
66095;SDS011;53861;53.422;14.530;2024-03-23T07:57:26;9.52;;;2.42;;
66095;SDS011;53861;53.422;14.530;2024-03-23T07:59:52;8.82;;;2.83;;
66095;SDS011;53861;53.422;14.530;2024-03-23T08:02:19;9.98;;;3.08;;
66095;SDS011;53861;53.422;14.530;2024-03-23T08:04:45;9.15;;;2.90;;
66095;SDS011;53861;53.422;14.530;2024-03-23T08:07:14;10.40;;;3.17;;
66095;SDS011;53861;53.422;14.530;2024-03-23T08:09:40;12.85;;;3.47;;
66095;SDS011;53861;53.422;14.530;2024-03-23T08:12:08;10.20;;;3.63;;
66095;SDS011;53861;53.422;14.530;2024-03-23T08:14:34;13.70;;;3.85;;
66095;SDS011;53861;53.422;14.530;2024-03-23T08:17:01;12.32;;;4.05;;
66095;SDS011;53861;53.422;14.530;2024-03-23T08:19:27;20.30;;;4.25;;
66095;SDS011;53861;53.422;14.530;2024-03-23T08:21:55;13.30;;;4.00;;
66095;SDS011;53861;53.422;14.530;2024-03-23T08:24:22;13.57;;;3.42;;
66095;SDS011;53861;53.422;14.530;2024-03-23T08:26:49;17.13;;;4.28;;
66095;SDS011;53861;53.422;14.530;2024-03-23T08:29:16;16.05;;;3.90;;
66095;SDS011;53861;53.422;14.530;2024-03-23T08:31:43;15.20;;;4.13;;
66095;SDS011;53861;53.422;14.530;2024-03-23T08:34:09;12.40;;;4.00;;
66095;SDS011;53861;53.422;14.530;2024-03-23T08:36:36;14.30;;;4.07;;
66095;SDS011;53861;53.422;14.530;2024-03-23T08:39:03;13.95;;;4.35;;
66095;SDS011;53861;53.422;14.530;2024-03-23T08:41:31;20.63;;;4.32;;
66095;SDS011;53861;53.422;14.530;2024-03-23T08:43:58;13.38;;;3.92;;
66095;SDS011;53861;53.422;14.530;2024-03-23T08:46:25;15.32;;;4.10;;
66095;SDS011;53861;53.422;14.530;2024-03-23T08:48:54;19.25;;;4.63;;
66095;SDS011;53861;53.422;14.530;2024-03-23T08:51:21;20.17;;;4.05;;
66095;SDS011;53861;53.422;14.530;2024-03-23T08:53:48;21.48;;;3.83;;
66095;SDS011;53861;53.422;14.530;2024-03-23T08:56:15;19.10;;;3.75;;
66095;SDS011;53861;53.422;14.530;2024-03-23T08:58:43;19.20;;;4.38;;
66095;SDS011;53861;53.422;14.530;2024-03-23T09:01:10;21.27;;;4.28;;
66095;SDS011;53861;53.422;14.530;2024-03-23T09:03:38;15.57;;;4.10;;
66095;SDS011;53861;53.422;14.530;2024-03-23T09:06:08;16.05;;;4.15;;
66095;SDS011;53861;53.422;14.530;2024-03-23T09:08:34;17.85;;;4.85;;
66095;SDS011;53861;53.422;14.530;2024-03-23T09:11:03;14.95;;;4.65;;
66095;SDS011;53861;53.422;14.530;2024-03-23T09:13:31;14.05;;;4.03;;
66095;SDS011;53861;53.422;14.530;2024-03-23T09:16:00;21.05;;;4.10;;
66095;SDS011;53861;53.422;14.530;2024-03-23T09:18:27;19.25;;;4.50;;
66095;SDS011;53861;53.422;14.530;2024-03-23T09:20:54;16.10;;;3.80;;
66095;SDS011;53861;53.422;14.530;2024-03-23T09:23:20;19.55;;;3.97;;
66095;SDS011;53861;53.422;14.530;2024-03-23T09:25:48;22.92;;;4.40;;
66095;SDS011;53861;53.422;14.530;2024-03-23T09:28:14;26.50;;;4.50;;
66095;SDS011;53861;53.422;14.530;2024-03-23T09:30:41;20.83;;;4.60;;
66095;SDS011;53861;53.422;14.530;2024-03-23T09:33:09;21.42;;;4.47;;
66095;SDS011;53861;53.422;14.530;2024-03-23T09:35:39;19.15;;;3.80;;
66095;SDS011;53861;53.422;14.530;2024-03-23T09:38:07;19.15;;;4.53;;
66095;SDS011;53861;53.422;14.530;2024-03-23T09:40:35;23.88;;;4.30;;
66095;SDS011;53861;53.422;14.530;2024-03-23T09:43:06;14.68;;;3.75;;
66095;SDS011;53861;53.422;14.530;2024-03-23T09:45:36;22.48;;;4.50;;
66095;SDS011;53861;53.422;14.530;2024-03-23T09:48:06;22.23;;;4.72;;
66095;SDS011;53861;53.422;14.530;2024-03-23T09:50:37;24.50;;;5.03;;
66095;SDS011;53861;53.422;14.530;2024-03-23T09:53:04;26.40;;;5.15;;
66095;SDS011;53861;53.422;14.530;2024-03-23T09:55:33;21.95;;;5.90;;
66095;SDS011;53861;53.422;14.530;2024-03-23T09:58:01;17.10;;;4.05;;
66095;SDS011;53861;53.422;14.530;2024-03-23T10:00:28;17.13;;;4.10;;
66095;SDS011;53861;53.422;14.530;2024-03-23T10:02:55;15.85;;;3.33;;
66095;SDS011;53861;53.422;14.530;2024-03-23T10:05:23;15.18;;;2.65;;
66095;SDS011;53861;53.422;14.530;2024-03-23T10:07:51;11.80;;;2.90;;
66095;SDS011;53861;53.422;14.530;2024-03-23T10:10:21;13.30;;;3.10;;
66095;SDS011;53861;53.422;14.530;2024-03-23T10:12:50;12.32;;;2.60;;
66095;SDS011;53861;53.422;14.530;2024-03-23T10:15:20;8.98;;;2.55;;
66095;SDS011;53861;53.422;14.530;2024-03-23T10:17:47;18.98;;;4.35;;
66095;SDS011;53861;53.422;14.530;2024-03-23T10:20:18;13.68;;;2.90;;
66095;SDS011;53861;53.422;14.530;2024-03-23T10:22:45;13.77;;;3.45;;
66095;SDS011;53861;53.422;14.530;2024-03-23T10:25:14;10.52;;;2.67;;
66095;SDS011;53861;53.422;14.530;2024-03-23T10:27:41;9.50;;;2.72;;
66095;SDS011;53861;53.422;14.530;2024-03-23T10:30:09;11.25;;;2.85;;
66095;SDS011;53861;53.422;14.530;2024-03-23T10:32:36;6.47;;;2.10;;
66095;SDS011;53861;53.422;14.530;2024-03-23T10:35:13;5.20;;;1.98;;
66095;SDS011;53861;53.422;14.530;2024-03-23T10:37:44;7.72;;;1.88;;
66095;SDS011;53861;53.422;14.530;2024-03-23T10:40:13;6.65;;;1.50;;
66095;SDS011;53861;53.422;14.530;2024-03-23T10:42:41;6.15;;;1.92;;
66095;SDS011;53861;53.422;14.530;2024-03-23T10:45:09;8.90;;;2.22;;
66095;SDS011;53861;53.422;14.530;2024-03-23T10:47:36;8.68;;;2.50;;
66095;SDS011;53861;53.422;14.530;2024-03-23T10:50:08;8.27;;;2.40;;
66095;SDS011;53861;53.422;14.530;2024-03-23T10:52:35;8.90;;;3.35;;
66095;SDS011;53861;53.422;14.530;2024-03-23T10:55:07;15.93;;;3.50;;
66095;SDS011;53861;53.422;14.530;2024-03-23T10:57:40;11.10;;;3.10;;
66095;SDS011;53861;53.422;14.530;2024-03-23T11:00:10;11.82;;;3.15;;
66095;SDS011;53861;53.422;14.530;2024-03-23T11:02:41;10.07;;;3.50;;
66095;SDS011;53861;53.422;14.530;2024-03-23T11:08:01;12.63;;;3.87;;
66095;SDS011;53861;53.422;14.530;2024-03-23T11:10:29;13.90;;;4.05;;
66095;SDS011;53861;53.422;14.530;2024-03-23T11:12:57;16.42;;;4.80;;
66095;SDS011;53861;53.422;14.530;2024-03-23T11:15:25;12.52;;;3.67;;
66095;SDS011;53861;53.422;14.530;2024-03-23T11:18:03;12.43;;;3.40;;
66095;SDS011;53861;53.422;14.530;2024-03-23T11:20:33;11.20;;;4.47;;
66095;SDS011;53861;53.422;14.530;2024-03-23T11:23:00;10.65;;;3.20;;
66095;SDS011;53861;53.422;14.530;2024-03-23T11:25:27;12.45;;;3.47;;
66095;SDS011;53861;53.422;14.530;2024-03-23T11:27:55;12.00;;;3.20;;
66095;SDS011;53861;53.422;14.530;2024-03-23T11:30:25;11.68;;;3.10;;
66095;SDS011;53861;53.422;14.530;2024-03-23T11:32:52;10.10;;;3.25;;
66095;SDS011;53861;53.422;14.530;2024-03-23T11:35:27;8.75;;;3.15;;
66095;SDS011;53861;53.422;14.530;2024-03-23T11:38:04;10.02;;;3.20;;
66095;SDS011;53861;53.422;14.530;2024-03-23T11:40:33;11.35;;;3.30;;
66095;SDS011;53861;53.422;14.530;2024-03-23T11:43:00;11.70;;;3.40;;
66095;SDS011;53861;53.422;14.530;2024-03-23T11:45:33;12.27;;;4.07;;
66095;SDS011;53861;53.422;14.530;2024-03-23T11:48:06;12.75;;;3.70;;
66095;SDS011;53861;53.422;14.530;2024-03-23T11:50:35;13.35;;;3.65;;
66095;SDS011;53861;53.422;14.530;2024-03-23T11:53:11;12.40;;;3.40;;
66095;SDS011;53861;53.422;14.530;2024-03-23T11:55:43;12.32;;;3.33;;
66095;SDS011;53861;53.422;14.530;2024-03-23T11:58:11;13.07;;;4.68;;
66095;SDS011;53861;53.422;14.530;2024-03-23T12:00:41;13.50;;;2.92;;
66095;SDS011;53861;53.422;14.530;2024-03-23T12:03:07;13.43;;;3.45;;
66095;SDS011;53861;53.422;14.530;2024-03-23T12:05:36;14.15;;;3.38;;
66095;SDS011;53861;53.422;14.530;2024-03-23T12:08:16;14.48;;;3.40;;
66095;SDS011;53861;53.422;14.530;2024-03-23T12:10:47;12.82;;;3.67;;
66095;SDS011;53861;53.422;14.530;2024-03-23T12:13:17;10.80;;;3.38;;
66095;SDS011;53861;53.422;14.530;2024-03-23T12:15:47;12.45;;;3.42;;
66095;SDS011;53861;53.422;14.530;2024-03-23T12:18:15;13.13;;;3.22;;
66095;SDS011;53861;53.422;14.530;2024-03-23T12:20:42;15.40;;;3.78;;
66095;SDS011;53861;53.422;14.530;2024-03-23T12:23:09;12.90;;;3.70;;
66095;SDS011;53861;53.422;14.530;2024-03-23T12:25:37;14.43;;;3.58;;
66095;SDS011;53861;53.422;14.530;2024-03-23T12:28:04;11.27;;;3.50;;
66095;SDS011;53861;53.422;14.530;2024-03-23T12:30:33;19.88;;;4.05;;
66095;SDS011;53861;53.422;14.530;2024-03-23T12:33:02;19.92;;;4.55;;
66095;SDS011;53861;53.422;14.530;2024-03-23T12:35:30;14.88;;;3.55;;
66095;SDS011;53861;53.422;14.530;2024-03-23T12:37:56;14.23;;;4.15;;
66095;SDS011;53861;53.422;14.530;2024-03-23T12:40:23;17.75;;;3.78;;
66095;SDS011;53861;53.422;14.530;2024-03-23T12:42:50;16.17;;;3.72;;
66095;SDS011;53861;53.422;14.530;2024-03-23T12:45:17;14.88;;;3.42;;
66095;SDS011;53861;53.422;14.530;2024-03-23T12:47:43;14.98;;;3.97;;
66095;SDS011;53861;53.422;14.530;2024-03-23T12:50:12;13.75;;;3.72;;
66095;SDS011;53861;53.422;14.530;2024-03-23T12:52:38;22.42;;;4.03;;
66095;SDS011;53861;53.422;14.530;2024-03-23T12:55:06;17.50;;;4.05;;
66095;SDS011;53861;53.422;14.530;2024-03-23T12:57:32;19.20;;;4.70;;
66095;SDS011;53861;53.422;14.530;2024-03-23T13:00:00;22.35;;;4.22;;
66095;SDS011;53861;53.422;14.530;2024-03-23T13:02:26;13.38;;;3.72;;
66095;SDS011;53861;53.422;14.530;2024-03-23T13:04:54;17.92;;;4.03;;
66095;SDS011;53861;53.422;14.530;2024-03-23T13:07:22;19.25;;;3.97;;
66095;SDS011;53861;53.422;14.530;2024-03-23T13:09:50;13.25;;;3.45;;
66095;SDS011;53861;53.422;14.530;2024-03-23T13:12:17;14.52;;;3.05;;
66095;SDS011;53861;53.422;14.530;2024-03-23T13:14:46;16.42;;;5.60;;
66095;SDS011;53861;53.422;14.530;2024-03-23T13:17:12;29.25;;;5.68;;
66095;SDS011;53861;53.422;14.530;2024-03-23T13:19:40;16.88;;;4.30;;
66095;SDS011;53861;53.422;14.530;2024-03-23T13:22:07;17.52;;;3.50;;
66095;SDS011;53861;53.422;14.530;2024-03-23T13:24:38;10.18;;;3.25;;
66095;SDS011;53861;53.422;14.530;2024-03-23T13:27:04;17.52;;;3.25;;
66095;SDS011;53861;53.422;14.530;2024-03-23T13:29:33;8.32;;;2.72;;
66095;SDS011;53861;53.422;14.530;2024-03-23T13:32:00;12.30;;;2.85;;
66095;SDS011;53861;53.422;14.530;2024-03-23T13:34:27;12.82;;;2.80;;
66095;SDS011;53861;53.422;14.530;2024-03-23T13:36:55;11.00;;;3.10;;
66095;SDS011;53861;53.422;14.530;2024-03-23T13:39:23;19.65;;;4.15;;
66095;SDS011;53861;53.422;14.530;2024-03-23T13:41:52;14.55;;;3.97;;
66095;SDS011;53861;53.422;14.530;2024-03-23T13:44:20;11.70;;;2.50;;
66095;SDS011;53861;53.422;14.530;2024-03-23T13:46:47;15.75;;;3.63;;
66095;SDS011;53861;53.422;14.530;2024-03-23T13:49:20;16.52;;;4.10;;
66095;SDS011;53861;53.422;14.530;2024-03-23T13:51:51;18.92;;;3.80;;
66095;SDS011;53861;53.422;14.530;2024-03-23T13:54:18;13.80;;;3.15;;
66095;SDS011;53861;53.422;14.530;2024-03-23T13:56:45;14.27;;;2.50;;
66095;SDS011;53861;53.422;14.530;2024-03-23T13:59:13;15.50;;;4.47;;
66095;SDS011;53861;53.422;14.530;2024-03-23T14:01:40;15.70;;;3.22;;
66095;SDS011;53861;53.422;14.530;2024-03-23T14:04:07;13.02;;;2.60;;
66095;SDS011;53861;53.422;14.530;2024-03-23T14:06:34;11.55;;;2.35;;
66095;SDS011;53861;53.422;14.530;2024-03-23T14:09:01;11.25;;;2.53;;
66095;SDS011;53861;53.422;14.530;2024-03-23T14:11:29;11.88;;;2.38;;
66095;SDS011;53861;53.422;14.530;2024-03-23T14:13:56;11.88;;;2.22;;
66095;SDS011;53861;53.422;14.530;2024-03-23T14:16:25;10.27;;;2.30;;
66095;SDS011;53861;53.422;14.530;2024-03-23T14:18:53;12.10;;;2.20;;
66095;SDS011;53861;53.422;14.530;2024-03-23T14:21:19;7.45;;;2.17;;
66095;SDS011;53861;53.422;14.530;2024-03-23T14:23:48;12.13;;;2.67;;
66095;SDS011;53861;53.422;14.530;2024-03-23T14:26:15;9.07;;;2.00;;
66095;SDS011;53861;53.422;14.530;2024-03-23T14:28:48;16.83;;;4.20;;
66095;SDS011;53861;53.422;14.530;2024-03-23T14:31:16;13.13;;;2.47;;
66095;SDS011;53861;53.422;14.530;2024-03-23T14:33:47;9.77;;;2.83;;
66095;SDS011;53861;53.422;14.530;2024-03-23T14:36:14;14.32;;;2.40;;
66095;SDS011;53861;53.422;14.530;2024-03-23T14:38:42;12.35;;;2.15;;
66095;SDS011;53861;53.422;14.530;2024-03-23T14:41:08;14.18;;;2.75;;
66095;SDS011;53861;53.422;14.530;2024-03-23T14:43:35;12.07;;;2.63;;
66095;SDS011;53861;53.422;14.530;2024-03-23T14:46:08;12.65;;;2.58;;
66095;SDS011;53861;53.422;14.530;2024-03-23T14:48:36;11.25;;;2.20;;
66095;SDS011;53861;53.422;14.530;2024-03-23T14:51:04;10.50;;;2.08;;
66095;SDS011;53861;53.422;14.530;2024-03-23T14:53:34;8.90;;;2.13;;
66095;SDS011;53861;53.422;14.530;2024-03-23T14:56:01;15.23;;;2.70;;
66095;SDS011;53861;53.422;14.530;2024-03-23T14:58:29;14.50;;;2.40;;
66095;SDS011;53861;53.422;14.530;2024-03-23T15:01:05;12.48;;;2.10;;
66095;SDS011;53861;53.422;14.530;2024-03-23T15:03:34;9.68;;;2.47;;
66095;SDS011;53861;53.422;14.530;2024-03-23T15:06:01;11.80;;;2.85;;
66095;SDS011;53861;53.422;14.530;2024-03-23T15:08:30;9.85;;;2.55;;
66095;SDS011;53861;53.422;14.530;2024-03-23T15:10:58;16.08;;;5.30;;
66095;SDS011;53861;53.422;14.530;2024-03-23T15:13:26;15.05;;;3.67;;
66095;SDS011;53861;53.422;14.530;2024-03-23T15:15:52;10.60;;;2.70;;
66095;SDS011;53861;53.422;14.530;2024-03-23T15:18:19;9.23;;;2.75;;
66095;SDS011;53861;53.422;14.530;2024-03-23T15:20:51;18.27;;;2.58;;
66095;SDS011;53861;53.422;14.530;2024-03-23T15:23:18;14.25;;;3.25;;
66095;SDS011;53861;53.422;14.530;2024-03-23T15:25:53;13.82;;;2.95;;
66095;SDS011;53861;53.422;14.530;2024-03-23T15:28:22;16.05;;;2.90;;